createdAt,value
2017-05-06T00:02:09.909Z,10.72
2017-05-06T00:04:38.198Z,10.02
2017-05-06T00:07:06.521Z,11.10
2017-05-06T00:09:34.801Z,11.73
2017-05-06T00:12:03.089Z,10.25
2017-05-06T00:14:32.145Z,10.00
2017-05-06T00:17:00.428Z,11.07
2017-05-06T00:19:28.722Z,10.32
2017-05-06T00:21:57.047Z,10.02
2017-05-06T00:24:25.326Z,11.37
2017-05-06T00:26:53.608Z,10.30
2017-05-06T00:29:21.933Z,11.17
2017-05-06T00:31:50.218Z,11.18
2017-05-06T00:34:18.512Z,10.20
2017-05-06T00:36:47.565Z,10.78
2017-05-06T00:39:15.844Z,10.52
2017-05-06T00:41:44.134Z,10.95
2017-05-06T00:44:12.721Z,11.05
2017-05-06T00:46:41.016Z,10.12
2017-05-06T00:49:09.296Z,11.00
2017-05-06T00:51:37.620Z,10.80
2017-05-06T00:54:05.895Z,9.98
2017-05-06T00:56:34.188Z,10.87
2017-05-06T00:59:02.491Z,11.38
2017-05-06T01:01:30.775Z,10.75
2017-05-06T01:03:59.062Z,10.27
2017-05-06T01:06:27.381Z,10.65
2017-05-06T01:08:55.674Z,10.62
2017-05-06T01:11:23.952Z,10.97
2017-05-06T01:13:52.268Z,10.60
2017-05-06T01:16:20.568Z,9.65
2017-05-06T01:18:48.853Z,10.22
2017-05-06T01:21:17.903Z,10.48
2017-05-06T01:23:46.181Z,10.67
2017-05-06T01:26:14.460Z,9.97
2017-05-06T01:28:42.786Z,10.32
2017-05-06T01:31:11.805Z,10.55
2017-05-06T01:33:40.080Z,10.05
2017-05-06T01:36:08.409Z,9.78
2017-05-06T01:38:36.688Z,10.07
2017-05-06T01:41:04.972Z,10.97
2017-05-06T01:43:33.289Z,10.13
2017-05-06T01:46:01.598Z,10.27
2017-05-06T01:48:29.885Z,11.22
2017-05-06T01:50:58.208Z,10.58
2017-05-06T01:53:27.227Z,10.35
2017-05-06T01:55:55.509Z,10.87
2017-05-06T01:58:23.832Z,11.00
2017-05-06T02:00:52.129Z,10.42
2017-05-06T02:03:21.150Z,9.63
2017-05-06T02:05:49.474Z,10.78
2017-05-06T02:08:17.763Z,10.35
2017-05-06T02:10:46.056Z,10.70
2017-05-06T02:13:15.112Z,11.82
2017-05-06T02:15:43.400Z,11.47
2017-05-06T02:18:11.784Z,11.08
2017-05-06T02:20:40.109Z,11.42
2017-05-06T02:23:08.417Z,10.42
2017-05-06T02:25:36.693Z,11.17
2017-05-06T02:28:05.007Z,10.05
2017-05-06T02:30:33.285Z,11.28
2017-05-06T02:33:01.568Z,11.57
2017-05-06T02:35:30.640Z,11.75
2017-05-06T02:37:58.930Z,10.07
2017-05-06T02:40:27.222Z,10.68
2017-05-06T02:42:56.292Z,10.48
2017-05-06T02:45:24.572Z,10.82
2017-05-06T02:47:52.936Z,10.55
2017-05-06T02:50:21.256Z,10.20
2017-05-06T02:52:49.537Z,10.80
2017-05-06T02:55:18.572Z,10.87
2017-05-06T02:57:46.886Z,9.67
2017-05-06T03:00:15.163Z,10.83
2017-05-06T03:02:43.451Z,10.57
2017-05-06T03:05:11.766Z,11.57
2017-05-06T03:07:40.119Z,10.22
2017-05-06T03:10:08.405Z,9.38
2017-05-06T03:12:36.738Z,10.58
2017-05-06T03:15:05.020Z,10.88
2017-05-06T03:17:33.296Z,10.97
2017-05-06T03:20:01.638Z,11.72
2017-05-06T03:22:29.908Z,9.58
2017-05-06T03:24:58.199Z,10.65
2017-05-06T03:27:26.523Z,10.37
2017-05-06T03:29:54.809Z,10.50
2017-05-06T03:32:23.090Z,9.07
2017-05-06T03:34:51.417Z,10.58
2017-05-06T03:37:19.704Z,10.50
2017-05-06T03:39:47.989Z,10.65
2017-05-06T03:42:16.303Z,9.62
2017-05-06T03:44:44.585Z,10.42
2017-05-06T03:47:12.882Z,11.78
2017-05-06T03:49:41.951Z,9.88
2017-05-06T03:52:10.229Z,9.57
2017-05-06T03:54:38.512Z,10.02
2017-05-06T03:57:06.836Z,10.43
2017-05-06T03:59:35.129Z,10.62
2017-05-06T04:02:03.415Z,10.52
2017-05-06T04:04:31.740Z,10.73
2017-05-06T04:07:00.768Z,11.18
2017-05-06T04:09:29.048Z,10.35
2017-05-06T04:11:57.364Z,11.25
2017-05-06T04:14:25.645Z,11.00
2017-05-06T04:16:53.924Z,10.48
2017-05-06T04:19:22.286Z,12.32
2017-05-06T04:21:50.572Z,12.62
2017-05-06T04:24:18.857Z,12.00
2017-05-06T04:26:47.160Z,14.15
2017-05-06T04:29:16.195Z,11.73
2017-05-06T04:31:44.494Z,13.30
2017-05-06T04:34:12.827Z,12.13
2017-05-06T04:36:41.862Z,11.75
2017-05-06T04:39:10.151Z,12.98
2017-05-06T04:41:38.476Z,12.08
2017-05-06T04:44:07.512Z,12.60
2017-05-06T04:46:35.793Z,11.75
2017-05-06T04:49:04.141Z,11.57
2017-05-06T04:51:33.163Z,12.40
2017-05-06T04:54:01.455Z,12.98
2017-05-06T04:56:29.784Z,13.10
2017-05-06T04:58:58.814Z,13.72
2017-05-06T05:01:27.105Z,13.12
2017-05-06T05:03:55.412Z,12.65
2017-05-06T05:06:23.704Z,10.38
2017-05-06T05:08:52.733Z,11.55
2017-05-06T05:11:21.065Z,9.78
2017-05-06T05:13:49.396Z,10.92
2017-05-06T05:16:17.673Z,11.80
2017-05-06T05:18:46.009Z,11.98
2017-05-06T05:21:14.302Z,11.23
2017-05-06T05:23:43.331Z,10.47
2017-05-06T05:26:11.653Z,9.72
2017-05-06T05:28:39.952Z,9.75
2017-05-06T05:31:08.984Z,10.58
2017-05-06T05:33:37.304Z,9.53
2017-05-06T05:36:05.584Z,9.60
2017-05-06T05:38:33.864Z,9.98
2017-05-06T05:41:02.202Z,10.28
2017-05-06T05:43:30.484Z,8.78
2017-05-06T05:45:58.765Z,9.58
2017-05-06T05:48:27.096Z,10.02
2017-05-06T05:50:56.117Z,8.88
2017-05-06T05:53:24.397Z,8.85
2017-05-06T05:55:52.716Z,9.20
2017-05-06T05:58:21.000Z,8.93
2017-05-06T06:00:49.277Z,8.65
2017-05-06T06:03:17.636Z,8.45
2017-05-06T06:05:45.913Z,8.78
2017-05-06T06:08:14.208Z,8.05
2017-05-06T06:10:42.529Z,9.08
2017-05-06T06:13:10.812Z,8.87
2017-05-06T06:15:39.110Z,8.35
2017-05-06T06:18:07.441Z,8.13
2017-05-06T06:20:35.749Z,8.13
2017-05-06T06:23:04.054Z,7.38
2017-05-06T06:25:32.377Z,6.77
2017-05-06T06:28:01.400Z,7.08
2017-05-06T06:30:29.676Z,6.87
2017-05-06T06:32:58.000Z,7.15
2017-05-06T06:35:26.276Z,7.17
2017-05-06T06:37:54.565Z,6.25
2017-05-06T06:40:22.881Z,6.85
2017-05-06T06:42:51.158Z,6.58
2017-05-06T06:45:19.441Z,6.45
2017-05-06T06:47:47.758Z,6.33
2017-05-06T06:50:16.045Z,5.78
2017-05-06T06:52:44.324Z,5.52
2017-05-06T06:55:12.644Z,5.98
2017-05-06T06:57:40.924Z,6.53
2017-05-06T07:00:09.948Z,5.90
2017-05-06T07:02:38.268Z,6.63
2017-05-06T07:05:06.546Z,7.10
2017-05-06T07:07:34.856Z,5.92
2017-05-06T07:10:03.937Z,5.80
2017-05-06T07:12:32.210Z,6.48
2017-05-06T07:15:00.501Z,6.17
2017-05-06T07:17:29.564Z,5.98
2017-05-06T07:19:57.855Z,5.87
2017-05-06T07:22:26.131Z,6.50
2017-05-06T07:24:54.450Z,5.63
2017-05-06T07:27:22.736Z,6.83
2017-05-06T07:29:51.051Z,5.78
2017-05-06T07:32:19.377Z,5.52
2017-05-06T07:34:47.666Z,5.60
2017-05-06T07:37:15.949Z,6.18
2017-05-06T07:39:44.281Z,6.27
2017-05-06T07:42:12.964Z,5.43
2017-05-06T07:44:41.249Z,5.53
2017-05-06T07:47:09.573Z,6.75
2017-05-06T07:49:37.880Z,5.73
2017-05-06T07:52:06.181Z,6.00
2017-05-06T07:54:34.516Z,6.82
2017-05-06T07:57:02.817Z,5.93
2017-05-06T07:59:31.096Z,7.20
2017-05-06T08:01:59.413Z,6.40
2017-05-06T08:04:28.445Z,6.70
2017-05-06T08:06:56.741Z,6.98
2017-05-06T08:09:25.073Z,6.38
2017-05-06T08:11:54.112Z,6.43
2017-05-06T08:14:22.411Z,5.80
2017-05-06T08:16:50.737Z,7.48
2017-05-06T08:19:19.016Z,5.08
2017-05-06T08:21:47.318Z,6.45
2017-05-06T08:24:16.485Z,6.03
2017-05-06T08:26:44.770Z,5.40
2017-05-06T08:29:13.045Z,5.90
2017-05-06T08:31:41.360Z,5.54
2017-05-06T08:34:09.649Z,5.30
2017-05-06T08:36:37.951Z,5.76
2017-05-06T08:39:06.284Z,5.56
2017-05-06T08:41:34.565Z,6.32
2017-05-06T08:44:02.853Z,5.06
2017-05-06T08:46:31.163Z,5.84
2017-05-06T08:48:59.448Z,6.02
2017-05-06T08:51:27.725Z,5.20
2017-05-06T08:53:56.057Z,5.32
2017-05-06T08:56:24.349Z,5.04
2017-05-06T08:58:52.628Z,5.94
2017-05-06T09:01:20.956Z,4.74
2017-05-06T09:03:49.982Z,5.40
2017-05-06T09:06:18.277Z,5.02
2017-05-06T09:08:46.591Z,6.58
2017-05-06T09:11:15.612Z,6.22
2017-05-06T09:13:43.911Z,5.92
2017-05-06T09:16:12.238Z,5.52
2017-05-06T09:18:40.526Z,5.48
2017-05-06T09:21:09.557Z,5.66
2017-05-06T09:23:37.880Z,5.50
2017-05-06T09:26:06.928Z,5.32
2017-05-06T09:28:35.213Z,6.02
2017-05-06T09:31:03.537Z,6.34
2017-05-06T09:33:31.824Z,5.32
2017-05-06T09:36:00.112Z,5.40
2017-05-06T09:38:29.172Z,6.36
2017-05-06T09:40:57.452Z,6.50
2017-05-06T09:43:25.733Z,5.66
2017-05-06T09:45:54.056Z,6.72
2017-05-06T09:48:22.360Z,6.40
2017-05-06T09:50:50.653Z,6.92
2017-05-06T09:53:18.994Z,5.98
2017-05-06T09:55:47.290Z,6.14
2017-05-06T09:58:15.580Z,7.68
2017-05-06T10:00:43.904Z,7.32
2017-05-06T10:03:12.177Z,7.50
2017-05-06T10:05:40.461Z,6.76
2017-05-06T10:08:09.529Z,6.66
2017-05-06T10:10:37.808Z,7.02
2017-05-06T10:13:06.085Z,6.08
2017-05-06T10:15:34.413Z,7.00
2017-05-06T10:18:03.441Z,5.32
2017-05-06T10:20:31.724Z,5.66
2017-05-06T10:23:00.051Z,7.44
2017-05-06T10:25:29.074Z,7.12
2017-05-06T10:27:57.362Z,7.12
2017-05-06T10:30:25.692Z,6.56
2017-05-06T10:32:53.968Z,6.90
2017-05-06T10:35:22.263Z,6.40
2017-05-06T10:37:51.328Z,6.88
2017-05-06T10:40:19.612Z,7.92
2017-05-06T10:42:47.897Z,6.32
2017-05-06T10:45:16.212Z,6.60
2017-05-06T10:47:44.488Z,6.02
2017-05-06T10:50:13.056Z,5.42
2017-05-06T10:52:41.542Z,6.28
2017-05-06T10:55:10.018Z,5.42
2017-05-06T10:57:38.330Z,6.46
2017-05-06T11:00:06.653Z,7.16
2017-05-06T11:02:34.933Z,6.38
2017-05-06T11:05:03.216Z,6.56
2017-05-06T11:07:31.537Z,5.68
2017-05-06T11:09:59.824Z,6.14
2017-05-06T11:12:28.111Z,6.08
2017-05-06T11:14:56.421Z,5.22
2017-05-06T11:17:24.713Z,6.08
2017-05-06T11:19:52.995Z,5.16
2017-05-06T11:22:22.053Z,6.68
2017-05-06T11:24:50.337Z,6.40
2017-05-06T11:27:18.612Z,7.00
2017-05-06T11:29:46.908Z,5.40
2017-05-06T11:32:15.187Z,6.10
2017-05-06T11:34:43.664Z,5.60
2017-05-06T11:37:11.959Z,7.20
2017-05-06T11:39:40.247Z,6.60
2017-05-06T11:42:09.309Z,5.78
2017-05-06T11:44:37.618Z,5.62
2017-05-06T11:47:05.896Z,5.02
2017-05-06T11:49:34.207Z,5.90
2017-05-06T11:52:02.495Z,5.10
2017-05-06T11:54:30.773Z,5.24
2017-05-06T11:56:59.098Z,5.06
2017-05-06T11:59:27.384Z,4.74
2017-05-06T12:01:55.673Z,4.24
2017-05-06T12:04:24.729Z,4.52
2017-05-06T12:06:53.017Z,3.78
2017-05-06T12:09:21.297Z,4.14
2017-05-06T12:11:49.627Z,3.14
2017-05-06T12:14:17.912Z,4.44
2017-05-06T12:16:46.201Z,4.16
2017-05-06T12:19:14.520Z,3.90
2017-05-06T12:21:42.816Z,3.42
2017-05-06T12:24:11.861Z,4.00
2017-05-06T12:26:40.152Z,3.94
2017-05-06T12:29:08.440Z,3.72
2017-05-06T12:31:36.762Z,3.64
2017-05-06T12:34:05.085Z,3.08
2017-05-06T12:36:33.370Z,3.86
2017-05-06T12:39:01.693Z,3.18
2017-05-06T12:41:30.723Z,2.50
2017-05-06T12:43:59.006Z,3.04
2017-05-06T12:46:27.326Z,2.44
2017-05-06T12:48:56.357Z,2.36
2017-05-06T12:51:24.642Z,2.42
2017-05-06T12:53:52.970Z,2.64
2017-05-06T12:56:21.257Z,2.32
2017-05-06T12:58:49.533Z,2.14
2017-05-06T13:01:17.855Z,2.62
2017-05-06T13:03:46.169Z,2.56
2017-05-06T13:06:14.457Z,2.64
2017-05-06T13:08:42.777Z,2.42
2017-05-06T13:11:11.072Z,2.56
2017-05-06T13:13:39.374Z,2.22
2017-05-06T13:16:07.804Z,1.58
2017-05-06T13:18:36.829Z,1.08
2017-05-06T13:21:05.114Z,1.54
2017-05-06T13:23:33.440Z,2.40
2017-05-06T13:26:01.733Z,2.60
2017-05-06T13:28:30.027Z,2.34
2017-05-06T13:30:58.340Z,2.50
2017-05-06T13:33:26.997Z,3.04
2017-05-06T13:35:55.308Z,3.20
2017-05-06T13:38:23.637Z,2.82
2017-05-06T13:40:51.925Z,2.30
2017-05-06T13:43:20.214Z,2.04
2017-05-06T13:45:48.592Z,2.06
2017-05-06T13:48:16.875Z,2.04
2017-05-06T13:50:45.162Z,2.26
2017-05-06T13:53:13.482Z,1.86
2017-05-06T13:55:41.774Z,2.44
2017-05-06T13:58:10.806Z,1.92
2017-05-06T14:00:39.144Z,2.34
2017-05-06T14:03:08.173Z,2.50
2017-05-06T14:05:36.461Z,1.84
2017-05-06T14:08:04.777Z,2.22
2017-05-06T14:10:33.074Z,1.54
2017-05-06T14:13:01.371Z,1.80
2017-05-06T14:15:30.441Z,1.76
2017-05-06T14:17:58.785Z,1.64
2017-05-06T14:20:27.074Z,1.54
2017-05-06T14:22:55.400Z,1.76
2017-05-06T14:25:24.432Z,1.54
2017-05-06T14:27:52.722Z,1.70
2017-05-06T14:30:21.111Z,1.50
2017-05-06T14:32:49.389Z,1.60
2017-05-06T14:35:17.681Z,1.80
2017-05-06T14:37:45.989Z,2.00
2017-05-06T14:40:15.085Z,1.96
2017-05-06T14:42:44.110Z,1.96
2017-05-06T14:45:12.436Z,2.40
2017-05-06T14:47:40.728Z,1.86
2017-05-06T14:50:09.757Z,1.52
2017-05-06T14:52:38.061Z,1.94
2017-05-06T14:55:06.342Z,1.74
2017-05-06T14:57:34.636Z,1.66
2017-05-06T15:00:02.957Z,1.66
2017-05-06T15:02:31.241Z,1.96
2017-05-06T15:04:59.520Z,1.66
2017-05-06T15:07:27.938Z,1.66
2017-05-06T15:09:56.225Z,1.74
2017-05-06T15:12:24.516Z,1.50
2017-05-06T15:14:52.831Z,1.70
2017-05-06T15:17:21.113Z,1.56
2017-05-06T15:19:49.481Z,1.86
2017-05-06T15:22:18.545Z,1.60
2017-05-06T15:24:46.821Z,1.34
2017-05-06T15:27:15.334Z,1.80
2017-05-06T15:29:43.664Z,1.70
2017-05-06T15:32:11.941Z,1.86
2017-05-06T15:34:40.225Z,1.56
2017-05-06T15:37:08.563Z,1.80
2017-05-06T15:39:36.860Z,1.64
2017-05-06T15:42:05.136Z,1.82
2017-05-06T15:44:33.461Z,1.78
2017-05-06T15:47:01.744Z,2.10
2017-05-06T15:49:30.775Z,1.70
2017-05-06T15:51:59.087Z,1.68
2017-05-06T15:54:27.368Z,1.98
2017-05-06T15:56:55.687Z,1.70
2017-05-06T15:59:23.978Z,2.30
2017-05-06T16:01:52.273Z,2.14
2017-05-06T16:04:20.593Z,2.12
2017-05-06T16:06:48.877Z,2.16
2017-05-06T16:09:17.172Z,1.64
2017-05-06T16:11:46.229Z,2.40
2017-05-06T16:14:14.506Z,4.98
2017-05-06T16:16:42.907Z,5.68
2017-05-06T16:19:11.237Z,6.36
2017-05-06T16:21:39.520Z,7.74
2017-05-06T16:24:07.804Z,7.92
2017-05-06T16:26:36.114Z,8.06
2017-05-06T16:29:04.397Z,6.80
2017-05-06T16:31:32.685Z,6.62
2017-05-06T16:34:01.010Z,7.62
2017-05-06T16:36:29.285Z,8.58
2017-05-06T16:38:57.571Z,7.20
2017-05-06T16:41:25.896Z,9.36
2017-05-06T16:43:54.184Z,9.92
2017-05-06T16:46:23.217Z,10.90
2017-05-06T16:48:51.548Z,9.47
2017-05-06T16:51:19.840Z,7.25
2017-05-06T16:53:48.877Z,9.58
2017-05-06T16:56:17.193Z,10.10
2017-05-06T16:58:45.472Z,7.18
2017-05-06T17:01:13.760Z,7.10
2017-05-06T17:03:42.828Z,6.55
2017-05-06T17:06:11.117Z,6.08
2017-05-06T17:08:39.400Z,7.30
2017-05-06T17:11:07.738Z,7.67
2017-05-06T17:13:36.017Z,7.17
2017-05-06T17:16:04.304Z,6.88
2017-05-06T17:18:32.620Z,7.35
2017-05-06T17:21:00.917Z,7.05
2017-05-06T17:23:29.323Z,6.85
2017-05-06T17:25:57.658Z,6.40
2017-05-06T17:28:25.945Z,7.04
2017-05-06T17:30:54.982Z,7.90
2017-05-06T17:33:23.314Z,7.42
2017-05-06T17:35:52.357Z,7.25
2017-05-06T17:38:21.429Z,13.60
2017-05-06T17:40:49.750Z,8.30
2017-05-06T17:43:18.054Z,11.72
2017-05-06T17:45:46.341Z,8.28
2017-05-06T17:48:14.645Z,7.10
2017-05-06T17:50:42.929Z,8.13
2017-05-06T17:53:11.283Z,7.90
2017-05-06T17:55:39.567Z,10.88
2017-05-06T17:58:08.592Z,8.03
2017-05-06T18:00:36.892Z,8.30
2017-05-06T18:03:05.181Z,7.85
2017-05-06T18:05:33.506Z,8.05
2017-05-06T18:08:02.541Z,8.87
2017-05-06T18:10:30.818Z,7.88
2017-05-06T18:12:59.136Z,16.63
2017-05-06T18:15:27.424Z,23.92
2017-05-06T18:17:56.452Z,8.47
2017-05-06T18:20:24.772Z,8.22
2017-05-06T18:22:53.060Z,8.63
2017-05-06T18:25:21.354Z,8.17
2017-05-06T18:27:50.420Z,8.43
2017-05-06T18:30:18.713Z,9.30
2017-05-06T18:32:46.999Z,8.22
2017-05-06T18:35:15.329Z,8.53
2017-05-06T18:37:43.604Z,8.53
2017-05-06T18:40:11.880Z,9.32
2017-05-06T18:42:40.189Z,8.82
2017-05-06T18:45:08.461Z,8.25
2017-05-06T18:47:36.740Z,62.83
2017-05-06T18:50:05.048Z,15.27
2017-05-06T18:52:33.324Z,8.40
2017-05-06T18:55:01.605Z,7.33
2017-05-06T18:57:29.901Z,7.67
2017-05-06T18:59:58.928Z,7.95
2017-05-06T19:02:27.210Z,8.58
2017-05-06T19:04:55.529Z,7.95
2017-05-06T19:07:23.817Z,10.35
2017-05-06T19:09:52.437Z,23.63
2017-05-06T19:12:20.759Z,9.22
2017-05-06T19:14:49.042Z,9.00
2017-05-06T19:17:17.333Z,9.03
2017-05-06T19:19:45.657Z,9.55
2017-05-06T19:22:13.941Z,14.20
2017-05-06T19:24:42.217Z,8.88
2017-05-06T19:27:10.553Z,11.72
2017-05-06T19:29:38.834Z,9.95
2017-05-06T19:32:07.870Z,15.90
2017-05-06T19:34:36.207Z,10.83
2017-05-06T19:37:05.237Z,13.83
2017-05-06T19:39:33.519Z,10.12
2017-05-06T19:42:01.827Z,9.05
2017-05-06T19:44:30.125Z,10.80
2017-05-06T19:46:58.446Z,9.82
2017-05-06T19:49:26.726Z,9.02
2017-05-06T19:51:55.018Z,8.02
2017-05-06T19:54:23.329Z,8.55
2017-05-06T19:56:51.613Z,8.33
2017-05-06T19:59:19.889Z,8.68
2017-05-06T20:01:48.230Z,13.30
2017-05-06T20:04:16.514Z,9.10
2017-05-06T20:06:44.788Z,8.42
2017-05-06T20:09:13.098Z,7.77
2017-05-06T20:11:41.373Z,7.60
2017-05-06T20:14:09.654Z,8.92
2017-05-06T20:16:37.976Z,9.20
2017-05-06T20:19:06.268Z,8.83
2017-05-06T20:21:34.552Z,9.25
2017-05-06T20:24:02.852Z,7.88
2017-05-06T20:26:31.133Z,7.57
2017-05-06T20:28:59.454Z,7.38
2017-05-06T20:31:28.473Z,7.73
2017-05-06T20:33:56.766Z,8.50
2017-05-06T20:36:25.059Z,8.72
2017-05-06T20:38:53.329Z,8.18
2017-05-06T20:41:21.655Z,7.83
2017-05-06T20:43:50.692Z,8.82
2017-05-06T20:46:18.988Z,8.80
2017-05-06T20:48:47.290Z,8.35
2017-05-06T20:51:15.576Z,8.73
2017-05-06T20:53:44.631Z,8.72
2017-05-06T20:56:12.918Z,9.13
2017-05-06T20:58:41.206Z,9.05
2017-05-06T21:01:09.516Z,8.62
2017-05-06T21:03:38.538Z,9.05
2017-05-06T21:06:06.820Z,8.70
2017-05-06T21:08:35.133Z,10.30
2017-05-06T21:11:03.424Z,9.37
2017-05-06T21:13:31.752Z,8.17
2017-05-06T21:16:00.110Z,9.65
2017-05-06T21:18:29.126Z,8.47
2017-05-06T21:21:01.228Z,8.67
2017-05-06T21:23:29.524Z,8.40
2017-05-06T21:25:57.837Z,9.60
2017-05-06T21:28:26.169Z,8.70
2017-05-06T21:30:54.551Z,9.57
2017-05-06T21:33:22.983Z,9.28
2017-05-06T21:35:51.351Z,8.30
2017-05-06T21:38:18.864Z,8.73
2017-05-06T21:40:47.150Z,8.52
2017-05-06T21:43:15.530Z,9.40
2017-05-06T21:45:43.813Z,9.07
2017-05-06T21:48:15.762Z,9.92
2017-05-06T21:50:44.046Z,9.82
2017-05-06T21:53:12.324Z,9.57
2017-05-06T21:55:40.648Z,9.18
2017-05-06T21:58:08.939Z,9.48
2017-05-06T22:00:37.356Z,9.13
2017-05-06T22:03:05.685Z,9.63
2017-05-06T22:05:34.706Z,9.63
2017-05-06T22:08:02.987Z,9.28
2017-05-06T22:10:31.297Z,9.65
2017-05-06T22:12:59.574Z,9.18
2017-05-06T22:15:27.854Z,8.93
2017-05-06T22:17:56.177Z,8.98
2017-05-06T22:20:24.473Z,8.95
2017-05-06T22:22:52.753Z,9.12
2017-05-06T22:25:21.077Z,8.82
2017-05-06T22:27:49.357Z,9.73
2017-05-06T22:30:17.667Z,9.95
2017-05-06T22:32:46.712Z,9.80
2017-05-06T22:35:15.002Z,9.45
2017-05-06T22:37:43.284Z,9.90
2017-05-06T22:40:11.613Z,10.27
2017-05-06T22:42:39.906Z,10.23
2017-05-06T22:45:08.225Z,11.20
2017-05-06T22:47:36.545Z,9.72
2017-05-06T22:50:04.826Z,9.13
2017-05-06T22:52:33.109Z,10.70
2017-05-06T22:55:01.437Z,9.95
2017-05-06T22:57:29.721Z,10.35
2017-05-06T22:59:58.009Z,11.37
2017-05-06T23:02:27.068Z,10.17
2017-05-06T23:04:55.362Z,10.38
2017-05-06T23:07:23.658Z,10.63
2017-05-06T23:09:52.719Z,11.38
2017-05-06T23:12:21.013Z,10.38
2017-05-06T23:14:49.297Z,10.60
2017-05-06T23:17:17.614Z,9.88
2017-05-06T23:19:45.904Z,11.65
2017-05-06T23:22:14.193Z,11.57
2017-05-06T23:24:42.529Z,10.90
2017-05-06T23:27:11.562Z,10.58
2017-05-06T23:29:39.850Z,9.83
2017-05-06T23:32:08.168Z,11.08
2017-05-06T23:34:36.449Z,10.67
2017-05-06T23:37:04.733Z,10.33
2017-05-06T23:39:33.801Z,10.27
2017-05-06T23:42:02.085Z,10.87
2017-05-06T23:44:30.369Z,11.02
2017-05-06T23:46:58.695Z,11.27
2017-05-06T23:49:26.984Z,10.55
2017-05-06T23:51:55.266Z,9.98
2017-05-06T23:54:23.584Z,8.92
2017-05-06T23:56:51.866Z,9.02
2017-05-06T23:59:20.161Z,10.77
